createdAt,value
2018-08-08T00:00:30.626Z,4.27
2018-08-08T00:02:58.775Z,4.03
2018-08-08T00:05:26.906Z,3.73
2018-08-08T00:07:55.158Z,3.90
2018-08-08T00:10:23.280Z,4.00
2018-08-08T00:12:51.442Z,3.72
2018-08-08T00:15:19.578Z,4.00
2018-08-08T00:17:47.705Z,3.90
2018-08-08T00:20:15.854Z,3.70
2018-08-08T00:22:44.157Z,3.73
2018-08-08T00:25:13.687Z,4.00
2018-08-08T00:27:42.380Z,4.30
2018-08-08T00:30:11.954Z,4.12
2018-08-08T00:32:41.112Z,4.17
2018-08-08T00:35:09.236Z,4.03
2018-08-08T00:37:37.732Z,3.72
2018-08-08T00:40:07.798Z,3.80
2018-08-08T00:42:35.934Z,3.77
2018-08-08T00:45:06.506Z,4.27
2018-08-08T00:47:34.636Z,4.17
2018-08-08T00:50:02.814Z,4.30
2018-08-08T00:52:31.033Z,4.05
2018-08-08T00:54:59.233Z,4.20
2018-08-08T00:57:27.390Z,4.20
2018-08-08T01:02:35.038Z,4.30
2018-08-08T01:05:03.177Z,4.00
2018-08-08T01:07:31.285Z,3.90
2018-08-08T01:09:59.403Z,3.63
2018-08-08T01:12:27.609Z,4.23
2018-08-08T01:14:55.793Z,3.93
2018-08-08T01:17:23.926Z,4.13
2018-08-08T01:19:52.042Z,4.10
2018-08-08T01:22:20.158Z,3.95
2018-08-08T01:24:48.278Z,4.20
2018-08-08T01:27:16.404Z,4.23
2018-08-08T01:29:44.525Z,3.90
2018-08-08T01:32:13.073Z,4.00
2018-08-08T01:34:41.217Z,4.37
2018-08-08T01:37:09.329Z,4.17
2018-08-08T01:39:37.527Z,4.25
2018-08-08T01:42:05.685Z,4.00
2018-08-08T01:44:33.821Z,4.23
2018-08-08T01:47:02.045Z,4.23
2018-08-08T01:49:30.279Z,4.10
2018-08-08T01:51:58.414Z,4.15
2018-08-08T01:54:26.553Z,4.57
2018-08-08T01:56:54.681Z,4.30
2018-08-08T01:59:22.837Z,4.30
2018-08-08T02:01:51.090Z,4.42
2018-08-08T02:04:19.373Z,4.08
2018-08-08T02:06:47.497Z,4.70
2018-08-08T02:09:15.668Z,3.93
2018-08-08T02:11:44.557Z,4.17
2018-08-08T02:14:12.750Z,4.13
2018-08-08T02:16:41.641Z,4.05
2018-08-08T02:19:09.794Z,4.43
2018-08-08T02:21:37.909Z,4.12
2018-08-08T02:24:06.130Z,4.13
2018-08-08T02:26:35.005Z,3.93
2018-08-08T02:29:03.141Z,4.33
2018-08-08T02:31:31.353Z,4.17
2018-08-08T02:33:59.505Z,3.67
2018-08-08T02:36:27.634Z,4.27
2018-08-08T02:38:55.778Z,3.90
2018-08-08T02:41:24.078Z,4.10
2018-08-08T02:43:52.206Z,4.00
2018-08-08T02:46:20.432Z,3.70
2018-08-08T02:48:48.554Z,4.07
2018-08-08T02:51:16.692Z,3.90
2018-08-08T02:53:44.836Z,3.93
2018-08-08T02:56:12.967Z,4.10
2018-08-08T02:58:41.190Z,4.20
2018-08-08T03:01:09.472Z,4.10
2018-08-08T03:03:37.902Z,4.28
2018-08-08T03:06:06.034Z,4.10
2018-08-08T03:08:34.228Z,4.30
2018-08-08T03:11:02.317Z,3.87
2018-08-08T03:13:32.977Z,4.40
2018-08-08T03:16:01.104Z,3.97
2018-08-08T03:18:29.337Z,4.70
2018-08-08T03:20:57.410Z,4.17
2018-08-08T03:23:25.570Z,4.30
2018-08-08T03:25:53.701Z,3.83
2018-08-08T03:28:21.834Z,4.33
2018-08-08T03:30:50.150Z,4.37
2018-08-08T03:33:18.370Z,4.23
2018-08-08T03:35:46.542Z,4.30
2018-08-08T03:38:14.666Z,4.47
2018-08-08T03:40:42.793Z,4.07
2018-08-08T03:43:10.953Z,4.40
2018-08-08T03:45:39.234Z,4.35
2018-08-08T03:48:07.374Z,4.60
2018-08-08T03:50:35.499Z,4.40
2018-08-08T03:53:03.661Z,5.10
2018-08-08T03:55:31.743Z,5.37
2018-08-08T03:57:59.898Z,5.10
2018-08-08T04:00:28.038Z,4.93
2018-08-08T04:02:56.160Z,4.67
2018-08-08T04:05:24.288Z,5.00
2018-08-08T04:07:52.401Z,5.07
2018-08-08T04:10:20.558Z,4.77
2018-08-08T04:12:49.106Z,5.53
2018-08-08T04:15:19.190Z,5.30
2018-08-08T04:17:47.438Z,5.00
2018-08-08T04:20:15.575Z,4.90
2018-08-08T04:22:43.908Z,4.90
2018-08-08T04:25:13.212Z,4.57
2018-08-08T04:27:41.741Z,4.85
2018-08-08T04:30:11.370Z,5.17
2018-08-08T04:32:39.977Z,5.20
2018-08-08T04:35:08.781Z,5.10
2018-08-08T04:37:37.253Z,4.50
2018-08-08T04:40:06.758Z,4.60
2018-08-08T04:42:34.957Z,4.70
2018-08-08T04:45:03.098Z,4.40
2018-08-08T04:47:31.549Z,4.42
2018-08-08T04:49:59.757Z,4.90
2018-08-08T04:52:27.908Z,4.90
2018-08-08T04:54:56.025Z,4.70
2018-08-08T04:57:24.166Z,5.30
2018-08-08T04:59:52.350Z,4.57
2018-08-08T05:02:21.021Z,4.75
2018-08-08T05:04:49.171Z,4.40
2018-08-08T05:07:17.402Z,4.20
2018-08-08T05:09:45.531Z,4.67
2018-08-08T05:12:13.683Z,4.73
2018-08-08T05:14:41.867Z,4.30
2018-08-08T05:17:10.462Z,4.87
2018-08-08T05:19:38.577Z,5.13
2018-08-08T05:22:06.721Z,4.40
2018-08-08T05:24:34.917Z,5.22
2018-08-08T05:27:03.108Z,4.27
2018-08-08T05:29:31.726Z,4.67
2018-08-08T05:31:59.872Z,4.83
2018-08-08T05:34:28.017Z,5.13
2018-08-08T05:36:56.205Z,5.03
2018-08-08T05:39:24.350Z,4.23
2018-08-08T05:41:52.617Z,5.28
2018-08-08T05:44:20.870Z,4.87
2018-08-08T05:46:49.023Z,5.00
2018-08-08T05:49:17.206Z,5.10
2018-08-08T05:51:45.380Z,4.72
2018-08-08T05:54:13.537Z,5.10
2018-08-08T05:56:41.685Z,5.10
2018-08-08T05:59:09.821Z,5.23
2018-08-08T06:01:38.001Z,5.27
2018-08-08T06:04:06.196Z,5.20
2018-08-08T06:06:34.334Z,4.83
2018-08-08T06:09:02.937Z,4.50
2018-08-08T06:11:31.948Z,4.97
2018-08-08T06:14:00.042Z,4.80
2018-08-08T06:16:28.178Z,4.50
2018-08-08T06:18:56.302Z,4.67
2018-08-08T06:21:24.461Z,4.83
2018-08-08T06:23:52.593Z,4.77
2018-08-08T06:26:21.218Z,5.40
2018-08-08T06:28:49.345Z,5.00
2018-08-08T06:31:17.558Z,5.28
2018-08-08T06:33:45.718Z,5.50
2018-08-08T06:36:13.809Z,6.10
2018-08-08T06:38:41.945Z,5.83
2018-08-08T06:41:10.078Z,5.13
2018-08-08T06:43:38.224Z,4.60
2018-08-08T06:46:06.345Z,5.33
2018-08-08T06:48:34.554Z,5.07
2018-08-08T06:51:02.745Z,5.43
2018-08-08T06:53:31.806Z,5.07
2018-08-08T06:55:59.918Z,4.62
2018-08-08T06:58:28.053Z,4.67
2018-08-08T07:00:56.179Z,5.07
2018-08-08T07:03:24.305Z,4.60
2018-08-08T07:05:52.435Z,4.80
2018-08-08T07:08:20.554Z,4.83
2018-08-08T07:10:48.670Z,5.13
2018-08-08T07:13:16.811Z,5.27
2018-08-08T07:15:44.929Z,4.47
2018-08-08T07:18:13.066Z,4.72
2018-08-08T07:20:41.193Z,4.80
2018-08-08T07:23:09.334Z,5.00
2018-08-08T07:25:37.445Z,5.03
2018-08-08T07:28:05.593Z,4.03
2018-08-08T07:30:33.714Z,4.57
2018-08-08T07:33:01.853Z,4.97
2018-08-08T07:35:29.970Z,4.40
2018-08-08T07:37:58.102Z,4.40
2018-08-08T07:40:27.153Z,4.93
2018-08-08T07:42:55.289Z,4.60
2018-08-08T07:45:25.514Z,4.70
2018-08-08T07:47:53.731Z,4.77
2018-08-08T07:50:21.855Z,5.17
2018-08-08T07:52:49.985Z,5.03
2018-08-08T07:55:19.222Z,4.43
2018-08-08T07:57:47.375Z,4.87
2018-08-08T08:00:20.115Z,4.30
2018-08-08T08:02:48.278Z,4.30
2018-08-08T08:05:16.678Z,5.03
2018-08-08T08:07:44.825Z,4.60
2018-08-08T08:10:12.942Z,4.90
2018-08-08T08:12:41.411Z,4.80
2018-08-08T08:15:10.971Z,5.60
2018-08-08T08:17:39.387Z,5.23
2018-08-08T08:20:09.951Z,4.50
2018-08-08T08:22:38.094Z,4.90
2018-08-08T08:25:06.596Z,5.17
2018-08-08T08:27:34.853Z,5.17
2018-08-08T08:30:03.041Z,5.00
2018-08-08T08:32:31.974Z,5.12
2018-08-08T08:35:00.106Z,4.62
2018-08-08T08:37:28.222Z,4.93
2018-08-08T08:39:56.357Z,4.80
2018-08-08T08:42:24.482Z,4.93
2018-08-08T08:44:52.618Z,4.73
2018-08-08T08:47:20.754Z,4.73
2018-08-08T08:49:48.943Z,4.57
2018-08-08T08:52:17.014Z,4.37
2018-08-08T08:54:45.146Z,4.70
2018-08-08T08:57:13.282Z,4.65
2018-08-08T08:59:41.417Z,4.77
2018-08-08T09:02:09.538Z,4.90
2018-08-08T09:04:37.672Z,4.87
2018-08-08T09:07:05.897Z,5.55
2018-08-08T09:09:34.029Z,4.50
2018-08-08T09:12:02.157Z,5.10
2018-08-08T09:19:30.969Z,5.47
2018-08-08T09:21:59.100Z,5.13
2018-08-08T09:24:27.260Z,4.67
2018-08-08T09:26:55.403Z,4.50
2018-08-08T09:29:23.513Z,4.63
2018-08-08T09:31:51.646Z,5.10
2018-08-08T09:34:20.054Z,5.00
2018-08-08T09:36:48.181Z,4.90
2018-08-08T09:39:16.316Z,4.97
2018-08-08T09:41:44.447Z,4.87
2018-08-08T09:44:12.622Z,5.20
2018-08-08T09:46:40.691Z,5.30
2018-08-08T09:49:09.203Z,5.70
2018-08-08T09:51:37.330Z,5.27
2018-08-08T09:54:05.451Z,5.10
2018-08-08T09:56:33.586Z,4.90
2018-08-08T09:59:01.715Z,5.50
2018-08-08T10:01:35.242Z,5.30
2018-08-08T10:04:08.915Z,5.20
2018-08-08T10:06:37.042Z,5.67
2018-08-08T10:09:06.290Z,5.00
2018-08-08T10:11:34.434Z,5.30
2018-08-08T10:14:02.566Z,5.47
2018-08-08T10:16:30.757Z,5.40
2018-08-08T10:18:58.983Z,5.17
2018-08-08T10:21:27.103Z,5.60
2018-08-08T10:23:55.223Z,5.50
2018-08-08T10:26:23.369Z,5.33
2018-08-08T10:28:51.505Z,5.23
2018-08-08T10:31:19.638Z,6.20
2018-08-08T10:33:47.758Z,5.67
2018-08-08T10:36:15.908Z,5.37
2018-08-08T10:38:44.027Z,5.10
2018-08-08T10:41:12.218Z,5.00
2018-08-08T10:43:40.294Z,5.20
2018-08-08T10:46:08.421Z,5.27
2018-08-08T10:48:36.546Z,5.73
2018-08-08T10:51:04.678Z,5.33
2018-08-08T10:53:32.809Z,4.97
2018-08-08T10:56:00.939Z,4.83
2018-08-08T10:58:29.065Z,5.23
2018-08-08T11:00:57.202Z,4.77
2018-08-08T11:03:25.330Z,4.90
2018-08-08T11:05:53.465Z,4.80
2018-08-08T11:08:21.750Z,4.60
2018-08-08T11:10:49.981Z,5.00
2018-08-08T11:13:18.145Z,4.63
2018-08-08T11:15:46.282Z,5.00
2018-08-08T11:18:14.425Z,5.37
2018-08-08T11:20:42.565Z,5.10
2018-08-08T11:23:10.693Z,5.40
2018-08-08T11:25:38.810Z,5.13
2018-08-08T11:28:06.961Z,5.27
2018-08-08T11:30:35.410Z,5.57
2018-08-08T11:33:03.569Z,5.30
2018-08-08T11:35:31.701Z,5.27
2018-08-08T11:37:59.841Z,5.03
2018-08-08T11:40:28.178Z,4.77
2018-08-08T11:42:56.325Z,5.53
2018-08-08T11:45:24.446Z,5.40
2018-08-08T11:47:52.579Z,5.53
2018-08-08T11:50:20.693Z,5.00
2018-08-08T11:52:48.819Z,5.40
2018-08-08T11:55:16.939Z,5.43
2018-08-08T11:57:45.317Z,5.23
2018-08-08T12:00:13.446Z,5.17
2018-08-08T12:02:41.594Z,5.07
2018-08-08T12:05:09.727Z,4.87
2018-08-08T12:07:37.869Z,4.93
2018-08-08T12:10:07.334Z,5.57
2018-08-08T12:12:36.616Z,5.13
2018-08-08T12:15:05.452Z,5.27
2018-08-08T12:17:33.591Z,4.60
2018-08-08T12:20:01.733Z,4.47
2018-08-08T12:22:30.127Z,4.73
2018-08-08T12:24:58.290Z,4.67
2018-08-08T12:27:26.456Z,4.70
2018-08-08T12:29:54.645Z,4.63
2018-08-08T12:32:22.841Z,4.23
2018-08-08T12:34:51.052Z,4.50
2018-08-08T12:37:19.210Z,4.60
2018-08-08T12:39:47.334Z,4.73
2018-08-08T12:42:15.490Z,5.10
2018-08-08T12:44:43.825Z,4.57
2018-08-08T12:47:11.920Z,4.90
2018-08-08T12:49:40.042Z,4.70
2018-08-08T12:52:08.310Z,4.73
2018-08-08T12:54:37.594Z,4.70
2018-08-08T12:57:05.722Z,4.90
2018-08-08T12:59:33.862Z,5.20
2018-08-08T13:02:02.173Z,5.00
2018-08-08T13:04:30.293Z,5.10
2018-08-08T13:06:58.448Z,4.57
2018-08-08T13:09:26.661Z,4.77
2018-08-08T13:11:54.774Z,4.20
2018-08-08T13:14:23.080Z,4.53
2018-08-08T13:16:51.106Z,5.07
2018-08-08T13:19:19.269Z,4.67
2018-08-08T13:21:47.406Z,4.17
2018-08-08T13:24:15.565Z,4.83
2018-08-08T13:26:43.661Z,4.03
2018-08-08T13:29:11.806Z,4.50
2018-08-08T13:31:39.930Z,5.10
2018-08-08T13:34:08.109Z,4.50
2018-08-08T13:36:36.229Z,4.47
2018-08-08T13:39:08.135Z,4.63
2018-08-08T13:41:36.290Z,4.40
2018-08-08T13:44:04.446Z,4.83
2018-08-08T13:46:32.561Z,4.43
2018-08-08T13:49:00.698Z,4.23
2018-08-08T13:51:28.827Z,4.83
2018-08-08T13:53:57.019Z,4.37
2018-08-08T13:56:25.141Z,4.50
2018-08-08T13:58:53.374Z,4.20
2018-08-08T14:01:21.570Z,4.57
2018-08-08T14:03:49.707Z,4.43
2018-08-08T14:06:17.946Z,4.90
2018-08-08T14:08:46.078Z,3.90
2018-08-08T14:11:14.332Z,4.80
2018-08-08T14:13:42.470Z,3.80
2018-08-08T14:16:10.585Z,3.93
2018-08-08T14:18:39.515Z,4.45
2018-08-08T14:21:07.837Z,4.53
2018-08-08T14:23:35.951Z,4.33
2018-08-08T14:26:04.193Z,4.17
2018-08-08T14:28:32.314Z,4.13
2018-08-08T14:31:00.531Z,4.17
2018-08-08T14:33:28.665Z,4.33
2018-08-08T14:35:56.886Z,4.00
2018-08-08T14:38:25.161Z,3.95
2018-08-08T14:40:53.298Z,4.37
2018-08-08T14:43:21.469Z,3.43
2018-08-08T14:45:49.873Z,4.00
2018-08-08T14:48:17.995Z,4.03
2018-08-08T14:50:46.168Z,3.70
2018-08-08T14:53:14.269Z,3.90
2018-08-08T14:55:42.453Z,4.50
2018-08-08T14:58:10.674Z,4.17
2018-08-08T15:00:38.801Z,4.40
2018-08-08T15:03:07.178Z,4.13
2018-08-08T15:05:35.317Z,3.97
2018-08-08T15:08:03.591Z,4.03
2018-08-08T15:10:31.754Z,3.73
2018-08-08T15:12:59.922Z,3.63
2018-08-08T15:15:28.051Z,3.63
2018-08-08T15:17:56.179Z,4.10
2018-08-08T15:20:25.264Z,3.83
2018-08-08T15:22:53.430Z,4.23
2018-08-08T15:25:21.546Z,4.10
2018-08-08T15:27:49.703Z,3.83
2018-08-08T15:30:18.086Z,4.17
2018-08-08T15:32:46.581Z,3.43
2018-08-08T15:35:14.786Z,3.80
2018-08-08T15:37:43.396Z,3.80
2018-08-08T15:40:11.903Z,3.30
2018-08-08T15:42:40.022Z,3.53
2018-08-08T15:45:09.825Z,3.87
2018-08-08T15:47:37.976Z,4.10
2018-08-08T15:50:07.713Z,3.63
2018-08-08T15:52:35.833Z,3.97
2018-08-08T15:55:04.430Z,4.10
2018-08-08T15:57:32.621Z,3.67
2018-08-08T16:00:00.793Z,3.77
2018-08-08T16:02:28.955Z,4.27
2018-08-08T16:04:57.067Z,3.77
2018-08-08T16:07:25.229Z,3.63
2018-08-08T16:09:53.358Z,3.50
2018-08-08T16:12:21.490Z,3.53
2018-08-08T16:14:49.609Z,3.57
2018-08-08T16:17:17.754Z,4.03
2018-08-08T16:19:46.014Z,3.50
2018-08-08T16:22:14.176Z,3.30
2018-08-08T16:24:43.237Z,3.33
2018-08-08T16:27:11.397Z,3.50
2018-08-08T16:29:39.668Z,3.23
2018-08-08T16:32:07.805Z,3.70
2018-08-08T16:34:36.014Z,3.93
2018-08-08T16:37:04.374Z,3.20
2018-08-08T16:39:32.622Z,3.67
2018-08-08T16:42:00.694Z,3.80
2018-08-08T16:44:28.826Z,3.80
2018-08-08T16:46:57.150Z,3.20
2018-08-08T16:49:25.299Z,3.93
2018-08-08T16:51:53.410Z,3.80
2018-08-08T16:54:21.720Z,3.77
2018-08-08T16:56:49.953Z,3.33
2018-08-08T16:59:18.190Z,3.77
2018-08-08T17:01:46.327Z,4.17
2018-08-08T17:04:14.469Z,3.63
2018-08-08T17:06:42.674Z,3.67
2018-08-08T17:09:11.738Z,3.83
2018-08-08T17:11:40.086Z,3.63
2018-08-08T17:14:08.253Z,3.50
2018-08-08T17:16:36.679Z,3.57
2018-08-08T17:19:04.790Z,3.87
2018-08-08T17:21:32.919Z,3.50
2018-08-08T17:24:01.050Z,3.50
2018-08-08T17:26:29.186Z,3.50
2018-08-08T17:28:57.295Z,4.07
2018-08-08T17:31:25.573Z,4.00
2018-08-08T17:33:53.706Z,4.20
2018-08-08T17:36:24.304Z,4.00
2018-08-08T17:38:52.786Z,3.60
2018-08-08T17:41:21.178Z,3.73
2018-08-08T17:43:49.705Z,3.80
2018-08-08T17:46:17.605Z,4.00
2018-08-08T17:48:45.818Z,3.90
2018-08-08T17:51:13.976Z,4.07
2018-08-08T17:53:42.093Z,4.00
2018-08-08T17:56:10.226Z,4.33
2018-08-08T17:58:38.478Z,3.80
2018-08-08T18:01:06.722Z,3.97
2018-08-08T18:03:34.853Z,3.83
2018-08-08T18:06:03.125Z,4.20
2018-08-08T18:08:31.241Z,4.13
2018-08-08T18:10:59.394Z,4.00
2018-08-08T18:13:27.557Z,4.63
2018-08-08T18:15:55.677Z,4.27
2018-08-08T18:18:23.809Z,4.20
2018-08-08T18:20:52.004Z,4.00
2018-08-08T18:23:20.241Z,3.87
2018-08-08T18:25:48.480Z,3.73
2018-08-08T18:28:17.301Z,4.67
2018-08-08T18:30:45.425Z,4.30
2018-08-08T18:33:13.559Z,3.97
2018-08-08T18:35:41.678Z,3.93
2018-08-08T18:38:10.004Z,4.20
2018-08-08T18:40:38.028Z,4.23
2018-08-08T18:43:06.157Z,4.20
2018-08-08T18:45:34.273Z,4.00
2018-08-08T18:48:02.485Z,3.83
2018-08-08T18:50:30.811Z,3.77
2018-08-08T18:52:58.938Z,4.47
2018-08-08T18:55:27.070Z,4.00
2018-08-08T18:57:55.201Z,4.40
2018-08-08T19:00:23.713Z,4.47
2018-08-08T19:02:52.492Z,3.93
2018-08-08T19:05:20.718Z,4.10
2018-08-08T19:07:48.908Z,4.50
2018-08-08T19:10:17.031Z,3.73
2018-08-08T19:12:45.437Z,3.90
2018-08-08T19:15:13.554Z,4.37
2018-08-08T19:17:41.682Z,4.40
2018-08-08T19:20:09.820Z,4.53
2018-08-08T19:22:38.039Z,5.10
2018-08-08T19:25:06.206Z,4.40
2018-08-08T19:27:34.333Z,4.30
2018-08-08T19:30:02.605Z,4.13
2018-08-08T19:32:30.734Z,4.37
2018-08-08T19:34:58.913Z,4.40
2018-08-08T19:37:27.273Z,4.27
2018-08-08T19:39:55.414Z,4.47
2018-08-08T19:42:23.822Z,3.83
2018-08-08T19:44:52.026Z,4.80
2018-08-08T19:47:20.142Z,4.27
2018-08-08T19:49:48.277Z,4.00
2018-08-08T19:52:16.462Z,4.47
2018-08-08T19:54:44.640Z,4.37
2018-08-08T19:57:12.741Z,4.37
2018-08-08T19:59:40.869Z,4.30
2018-08-08T20:02:08.986Z,4.60
2018-08-08T20:04:37.130Z,4.13
2018-08-08T20:07:05.401Z,4.35
2018-08-08T20:09:33.521Z,4.10
2018-08-08T20:12:01.717Z,4.30
2018-08-08T20:14:29.849Z,4.40
2018-08-08T20:16:57.969Z,4.37
2018-08-08T20:19:26.170Z,4.50
2018-08-08T20:21:54.287Z,4.20
2018-08-08T20:24:22.433Z,4.20
2018-08-08T20:26:51.030Z,4.43
2018-08-08T20:29:19.173Z,4.37
2018-08-08T20:31:47.484Z,3.93
2018-08-08T20:34:15.613Z,4.67
2018-08-08T20:36:43.731Z,3.60
2018-08-08T20:39:11.897Z,4.33
2018-08-08T20:41:40.024Z,4.10
2018-08-08T20:44:08.658Z,3.77
2018-08-08T20:46:36.893Z,4.33
2018-08-08T20:49:05.118Z,4.27
2018-08-08T20:51:33.545Z,4.40
2018-08-08T20:54:01.728Z,4.77
2018-08-08T20:56:29.834Z,4.23
2018-08-08T20:58:57.957Z,4.07
2018-08-08T21:01:26.089Z,4.90
2018-08-08T21:03:54.566Z,4.23
2018-08-08T21:06:22.781Z,4.00
2018-08-08T21:08:50.930Z,4.63
2018-08-08T21:11:19.049Z,3.97
2018-08-08T21:13:47.398Z,4.70
2018-08-08T21:16:15.511Z,4.10
2018-08-08T21:18:43.629Z,4.23
2018-08-08T21:21:11.765Z,4.27
2018-08-08T21:23:40.008Z,4.30
2018-08-08T21:26:08.297Z,4.77
2018-08-08T21:28:36.418Z,4.03
2018-08-08T21:31:04.550Z,4.43
2018-08-08T21:33:32.682Z,4.43
2018-08-08T21:36:00.813Z,4.20
2018-08-08T21:38:28.933Z,4.70
2018-08-08T21:41:03.921Z,4.80
2018-08-08T21:43:32.034Z,4.70
2018-08-08T21:46:00.169Z,4.47
2018-08-08T21:48:28.285Z,5.10
2018-08-08T21:50:56.433Z,4.73
2018-08-08T21:53:36.042Z,4.37
2018-08-08T21:56:15.712Z,4.80
2018-08-08T21:58:55.314Z,4.77
2018-08-08T22:01:35.766Z,4.13
2018-08-08T22:04:15.495Z,4.87
2018-08-08T22:06:54.920Z,4.53
2018-08-08T22:09:34.573Z,4.13
2018-08-08T22:12:14.330Z,4.53
2018-08-08T22:14:54.112Z,4.20
2018-08-08T22:17:38.201Z,4.20
2018-08-08T22:20:06.335Z,4.43
2018-08-08T22:22:34.469Z,3.73
2018-08-08T22:25:02.614Z,4.20
2018-08-08T22:27:30.753Z,4.37
2018-08-08T22:29:58.901Z,4.30
2018-08-08T22:32:27.023Z,4.40
2018-08-08T22:34:55.646Z,4.37
2018-08-08T22:37:23.772Z,4.60
2018-08-08T22:39:51.898Z,3.80
2018-08-08T22:42:20.050Z,4.67
2018-08-08T22:44:48.173Z,4.57
2018-08-08T22:47:16.304Z,4.20
2018-08-08T22:49:44.424Z,4.33
2018-08-08T22:52:12.677Z,4.20
2018-08-08T22:54:40.798Z,4.90
2018-08-08T22:57:08.930Z,4.63
2018-08-08T22:59:37.050Z,4.23
2018-08-08T23:02:05.196Z,4.30
2018-08-08T23:04:33.326Z,4.37
2018-08-08T23:07:03.341Z,4.48
2018-08-08T23:09:31.465Z,4.80
2018-08-08T23:11:59.589Z,4.10
2018-08-08T23:14:27.759Z,4.73
2018-08-08T23:16:55.902Z,4.43
2018-08-08T23:19:24.025Z,4.73
2018-08-08T23:21:52.170Z,4.63
2018-08-08T23:24:20.301Z,5.20
2018-08-08T23:26:48.425Z,5.07
2018-08-08T23:29:16.546Z,5.23
2018-08-08T23:31:44.692Z,4.40
2018-08-08T23:34:13.082Z,4.20
2018-08-08T23:36:41.218Z,4.50
2018-08-08T23:39:09.822Z,5.13
2018-08-08T23:41:37.986Z,4.80
2018-08-08T23:44:06.110Z,4.63
2018-08-08T23:46:34.241Z,4.40
2018-08-08T23:49:02.362Z,5.20
2018-08-08T23:51:30.585Z,4.87
2018-08-08T23:53:58.717Z,4.70
2018-08-08T23:56:26.865Z,5.20
2018-08-08T23:58:54.989Z,4.87
